CheckWX is a tool to help pilots better visualize weather data.  It is not intended as a substitute for an official pre-flight weather briefing.

11:16:39 UTC

PASD METAR
Sand Point Airport
Sand Point, Alaska, USA
Current

21 mins ago

PASD 171056Z AUTO 36005KT 10SM CLR 15/09 A3042 RMK AO2 SLP302 T01500094
Observed
Aug-17 @ 10:56 UTC
Wind
  • 360° at 5 KTS
Visibility
10 SM
Flight Rules
VFR
Cloud Levels
  • Clear skies
Temperature
15°C / 59°F
Dewpoint
C / 48°F
Humidity
68%
Altimeter
30.42" Hg
Pressure
1030.12 hPa
Previous

1 hour ago

PASD 170956Z AUTO 01007KT 10SM CLR 15/09 A3042 RMK AO2 SLP304 T01500094
Observed
Aug-17 @ 09:56 UTC
Wind
  • 010° at 7 KTS
Visibility
10 SM
Flight Rules
VFR
Cloud Levels
  • Clear skies
Temperature
15°C / 59°F
Dewpoint
C / 48°F
Humidity
68%
Altimeter
30.42" Hg
Pressure
1030.12 hPa
Previous

2 hours ago

PASD 170856Z AUTO VRB04KT 10SM CLR 16/10 A3043 RMK AO2 SLP306 T01560100 402060128 58004
Observed
Aug-17 @ 08:56 UTC
Wind
  • Variable at 4 KTS
Visibility
10 SM
Flight Rules
VFR
Cloud Levels
  • Clear skies
Temperature
16°C / 61°F
Dewpoint
10°C / 50°F
Humidity
68%
Altimeter
30.43" Hg
Pressure
1030.52 hPa